• Join FlightAware (Why Join?)
  • Login
  • US Flag GB Flag 
02:29 EDT


 

Airport Tracker/Info


-or-


 

Live Flight TrackerFlight Track Log ✈ UAL4431 ✈ 26-Apr-2013 ✈ KIAH - KLFT

Flight Track Log - Related Links

Times and Time Zones

All times are in EDT time to prevent confusion due to time zone crossing. See the UAL4431 flight status page for this flight to view local times or setup timezone preferences in your user account.

Time Position Orientation Groundspeed Altitude Reporting Facility
EDT Latitude Longitude Course Direction KTS MPH feet Rate Location/Type
15:42 29.9597 -95.3439 90° East 147 169 700  Level Houston Center
15:43 29.9475 -95.3042 110° East 193 222 2,600 2,340 Climbing Houston Center
15:44 29.9444 -95.2725 96° East 186 214 3,900 1,440 Climbing Houston Center
15:44 29.9411 -95.2350 96° East 238 274 4,100 180 Climbing Houston Center
15:45 29.9389 -95.1925 93° East 225 259 4,100  Level Houston Center
15:45 29.9350 -95.1442 95° East 264 304 4,100 1,320 Level Houston Center
15:46 29.9834 -94.8983 90° East  Level FlightAware Approximate
15:46 29.9350 -95.1069 90° East 256 295 5,500  Level Houston Center
15:46 29.9394 -95.0569 84° East 273 314 7,000 2,880 Climbing Houston Center
15:47 29.9834 -94.7895 90° East  Level FlightAware Approximate
15:47 29.9447 -95.0003 84° East 275 316 8,500  Level Houston Center
15:47 29.9453 -94.9644 89° East 297 342 9,200 2,100 Climbing Houston Center
15:48 29.9833 -94.6807 90° East  Level FlightAware Approximate
15:48 29.9514 -94.9036 83° East 294 338 10,700  Level Houston Center
15:48 29.9528 -94.8647 88° East 318 366 11,000 1,140 Climbing Houston Center
15:49 29.9592 -94.7944 84° East 332 382 11,900 1,320 Climbing Houston Center
15:49 29.9622 -94.7453 86° East 365 420 12,400 1,380 Climbing Houston Center
15:50 29.9681 -94.6775 84° East 361 415 13,400 1,380 Climbing Houston Center
15:51 29.9769 -94.5561 85° East 376 433 14,900 1,500 Climbing Houston Center
15:52 29.9881 -94.4197 85° East 378 435 16,500 1,320 Climbing Houston Center
15:53 29.9961 -94.2978 86° East 382 440 17,700 1,080 Climbing Houston Center
15:54 30.0119 -94.1753 81° East 387 445 18,800 600 Climbing Houston Center
15:55 30.0289 -94.0444 81° East 408 470 19,000 60 Climbing Houston Center
15:56 30.0489 -93.8800 82° East 430 495 19,000  Level Houston Center
15:57 30.0661 -93.7433 82° East 432 497 19,000  Level Houston Center
15:58 30.0817 -93.6081 82° East 431 496 19,000  Level Houston Center
15:59 30.0967 -93.4764 82° East 423 487 19,000  Level Houston Center
16:00 30.1119 -93.3453 82° East 419 482 19,000  Level Houston Center
16:01 30.1306 -93.1875 82° East 418 481 19,000 -600 Level Houston Center
16:02 30.1433 -93.0564 84° East 417 480 17,800 -1,500 Descending Houston Center
16:03 30.1506 -92.9264 86° East 408 470 15,900 -1,980 Descending Houston Center
16:04 30.1558 -92.8014 87° East 394 453 13,800 -2,040 Descending Houston Center
16:05 30.1622 -92.6775 87° East 389 448 11,800 -1,860 Descending Houston Center
16:06 30.1700 -92.5369 86° East 367 422 10,000 -1,500 Descending Houston Center
16:08 30.1731 -92.4386 88° East 319 367 8,700 -1,440 Descending Houston Center
16:09 30.1778 -92.3483 87° East 294 338 7,000 -1,620 Descending Houston Center
16:10 30.2081 -92.2661 67° East 283 326 5,400 -1,500 Descending Houston Center
16:11 30.2489 -92.1925 57° Northeast 275 316 4,000 -1,320 Descending Houston Center
16:12 30.2892 -92.1167 58° Northeast 265 305 2,700 -1,260 Descending Houston Center